Time;durP1;ratioP1;P1;durP2;ratioP2;P2;SDS_P1;SDS_P2;PMS_P1;PMS_P2;Temp;Humidity;BMP_temperature;BMP_pressure;BME280_temperature;BME280_humidity;BME280_pressure;Samples;Min_cycle;Max_cycle;Signal;HPM_P1;HPM_P2
2022/04/06 00:01:01;;;;;;;30.73;20.15;;;9.50;99.90;;;;;;4969928;28;20832;-78
2022/04/06 00:03:27;;;;;;;35.50;20.67;;;9.50;99.90;;;;;;4974039;28;20045;-76
2022/04/06 00:05:53;;;;;;;34.30;19.80;;;9.50;99.90;;;;;;4969351;28;20110;-77
2022/04/06 00:08:19;;;;;;;34.08;19.52;;;9.50;99.90;;;;;;4970247;28;20057;-76
2022/04/06 00:10:45;;;;;;;31.83;20.02;;;9.50;99.90;;;;;;4983150;28;20989;-76
2022/04/06 00:13:11;;;;;;;35.38;19.77;;;9.50;99.90;;;;;;4985558;28;20107;-75
2022/04/06 00:15:37;;;;;;;33.53;19.95;;;9.50;99.90;;;;;;4967680;28;20146;-76
2022/04/06 00:18:02;;;;;;;36.22;20.33;;;9.50;99.90;;;;;;4975427;28;20037;-76
2022/04/06 00:20:28;;;;;;;32.47;18.70;;;9.40;99.90;;;;;;4988725;28;20542;-76
2022/04/06 00:22:54;;;;;;;34.67;20.52;;;9.40;99.90;;;;;;4990608;28;21140;-77
2022/04/06 00:25:20;;;;;;;29.65;18.55;;;9.40;99.90;;;;;;4970408;28;20055;-76
2022/04/06 00:27:46;;;;;;;34.33;19.40;;;9.40;99.90;;;;;;4966086;28;20555;-77
2022/04/06 00:30:12;;;;;;;31.20;18.98;;;9.40;99.90;;;;;;4987415;28;20044;-77
2022/04/06 00:32:38;;;;;;;35.90;18.67;;;9.40;99.90;;;;;;4988367;28;20486;-77
2022/04/06 00:37:48;;;;;;;36.88;18.30;;;9.40;99.90;;;;;;4972658;28;20045;-76
2022/04/06 00:40:14;;;;;;;32.42;17.63;;;9.40;99.90;;;;;;4994357;28;20052;-76
2022/04/06 00:42:40;;;;;;;35.45;18.13;;;9.40;99.90;;;;;;4993046;28;20042;-76
2022/04/06 00:45:07;;;;;;;34.03;17.92;;;9.40;99.90;;;;;;4987482;28;20076;-76
2022/04/06 00:47:33;;;;;;;34.58;17.30;;;9.40;99.90;;;;;;4976604;28;20056;-77
2022/04/06 00:50:00;;;;;;;34.15;17.02;;;9.40;99.90;;;;;;4992004;28;20480;-77
2022/04/06 00:52:26;;;;;;;33.03;17.38;;;9.40;99.90;;;;;;4975496;28;20484;-76
2022/04/06 00:54:52;;;;;;;29.10;16.55;;;9.40;99.90;;;;;;4991263;28;20048;-76
2022/04/06 00:57:19;;;;;;;36.95;15.57;;;9.40;99.90;;;;;;4978932;28;20629;-76
2022/04/06 00:59:47;;;;;;;33.15;15.30;;;9.40;99.90;;;;;;4992483;28;20049;-76
2022/04/06 01:02:12;;;;;;;29.02;15.48;;;9.40;99.90;;;;;;4990599;28;20689;-77
2022/04/06 01:04:39;;;;;;;28.45;15.23;;;9.50;99.90;;;;;;4995006;28;20048;-76
2022/04/06 01:07:05;;;;;;;29.77;15.63;;;9.50;99.90;;;;;;4990433;28;20045;-76
2022/04/06 01:09:31;;;;;;;32.47;16.20;;;9.50;99.90;;;;;;4973307;28;20040;-76
2022/04/06 01:11:59;;;;;;;28.60;15.38;;;9.50;99.90;;;;;;4958223;28;20080;-76
2022/04/06 01:14:25;;;;;;;27.10;14.95;;;9.50;99.90;;;;;;4996268;28;20594;-75
2022/04/06 01:17:07;;;;;;;28.85;13.90;;;9.50;99.90;;;;;;4993783;28;20439;-76
2022/04/06 01:19:47;;;;;;;30.42;14.80;;;9.50;99.90;;;;;;4988808;28;20073;-76
2022/04/06 01:22:18;;;;;;;28.85;13.75;;;9.50;99.90;;;;;;4970120;28;20053;-76
2022/04/06 01:24:45;;;;;;;30.05;14.07;;;9.50;99.90;;;;;;4992798;28;20540;-76
2022/04/06 01:27:12;;;;;;;31.90;14.40;;;9.40;99.90;;;;;;4994295;28;20135;-77
2022/04/06 01:29:40;;;;;;;27.35;13.80;;;9.50;99.90;;;;;;4994376;28;20061;-77
2022/04/06 01:32:16;;;;;;;30.98;13.95;;;9.50;99.90;;;;;;4971693;28;20575;-77
2022/04/06 01:34:43;;;;;;;30.30;14.15;;;9.50;99.90;;;;;;4970939;28;20077;-75
2022/04/06 01:37:11;;;;;;;28.67;13.98;;;9.50;99.90;;;;;;4979189;28;20470;-76
2022/04/06 01:39:38;;;;;;;28.42;14.18;;;9.50;99.90;;;;;;4985591;28;20053;-75
2022/04/06 01:42:06;;;;;;;30.55;13.15;;;9.50;99.90;;;;;;5007744;28;20527;-76
2022/04/06 01:44:32;;;;;;;27.67;14.30;;;9.50;99.90;;;;;;5006407;28;20049;-77
2022/04/06 01:46:59;;;;;;;30.10;13.30;;;9.50;99.90;;;;;;5007124;28;20598;-76
2022/04/06 01:52:13;;;;;;;30.33;13.20;;;9.40;99.90;;;;;;5005344;28;20053;-76
2022/04/06 01:54:43;;;;;;;28.85;13.15;;;9.40;99.90;;;;;;4993052;28;20103;-76
2022/04/06 01:57:09;;;;;;;26.40;12.45;;;9.40;99.90;;;;;;5003116;28;20045;-76
2022/04/06 01:59:35;;;;;;;27.30;13.38;;;9.50;99.90;;;;;;5010114;28;20124;-76
2022/04/06 02:02:03;;;;;;;25.55;12.60;;;9.50;99.90;;;;;;5005663;28;20041;-77
2022/04/06 02:04:29;;;;;;;24.48;12.50;;;9.50;99.90;;;;;;5004707;28;20057;-76
2022/04/06 02:06:55;;;;;;;27.98;13.27;;;9.50;99.90;;;;;;4993121;28;23219;-76
2022/04/06 02:09:21;;;;;;;22.10;11.98;;;9.50;99.90;;;;;;5010183;28;20102;-76
2022/04/06 02:11:48;;;;;;;25.13;12.25;;;9.50;99.90;;;;;;5003015;28;20160;-76
2022/04/06 02:14:14;;;;;;;30.77;12.40;;;9.50;99.90;;;;;;5007234;28;20527;-77
2022/04/06 02:16:40;;;;;;;28.48;11.95;;;9.50;99.90;;;;;;5006702;28;20416;-77
2022/04/06 02:19:07;;;;;;;25.95;11.80;;;9.50;99.90;;;;;;4991055;28;20049;-76
2022/04/06 02:21:33;;;;;;;22.58;10.63;;;9.40;99.90;;;;;;5004505;28;20845;-76
2022/04/06 02:23:59;;;;;;;24.50;11.38;;;9.50;99.90;;;;;;5006224;28;21163;-76
2022/04/06 02:26:27;;;;;;;28.77;11.50;;;9.40;99.90;;;;;;5011454;28;20045;-77
2022/04/06 02:28:53;;;;;;;25.10;11.38;;;9.40;99.90;;;;;;4986815;28;20059;-76
2022/04/06 02:31:19;;;;;;;23.10;11.52;;;9.40;99.90;;;;;;4990881;28;20049;-77
2022/04/06 02:33:45;;;;;;;24.65;11.43;;;9.40;99.90;;;;;;5003589;28;20107;-76
2022/04/06 02:36:11;;;;;;;26.45;12.35;;;9.50;99.90;;;;;;5004007;28;20060;-77
2022/04/06 02:38:38;;;;;;;24.00;11.70;;;9.50;99.90;;;;;;4995193;28;20057;-77
2022/04/06 02:41:08;;;;;;;23.63;11.05;;;9.50;99.90;;;;;;5008084;28;20104;-76
2022/04/06 02:43:35;;;;;;;24.90;11.93;;;9.40;99.90;;;;;;5005884;28;20211;-76
2022/04/06 02:46:01;;;;;;;26.40;11.82;;;9.50;99.90;;;;;;5006586;28;20145;-76
2022/04/06 02:48:28;;;;;;;27.20;12.02;;;9.40;99.90;;;;;;5010331;28;20045;-77
2022/04/06 02:50:54;;;;;;;27.63;12.07;;;9.40;99.90;;;;;;4985198;28;20124;-77
2022/04/06 02:53:20;;;;;;;26.60;12.82;;;9.40;99.90;;;;;;4997208;28;20055;-77
2022/04/06 02:55:46;;;;;;;26.55;13.93;;;9.40;99.90;;;;;;5002163;28;20639;-77
2022/04/06 02:58:12;;;;;;;26.63;13.40;;;9.40;99.90;;;;;;5007243;28;20049;-77
2022/04/06 03:00:38;;;;;;;28.02;13.95;;;9.40;99.90;;;;;;4988271;28;20759;-76
2022/04/06 03:03:04;;;;;;;27.98;13.82;;;9.40;99.90;;;;;;5007046;28;20750;-78
2022/04/06 03:05:30;;;;;;;30.40;14.30;;;9.50;99.90;;;;;;5005201;28;20649;-77
2022/04/06 03:07:56;;;;;;;27.90;15.00;;;9.50;99.90;;;;;;5009277;28;20079;-76
2022/04/06 03:10:22;;;;;;;28.83;14.68;;;9.50;99.90;;;;;;4984045;28;20053;-76
2022/04/06 03:12:48;;;;;;;33.05;15.52;;;9.50;99.90;;;;;;5001759;28;20056;-77
2022/04/06 03:15:14;;;;;;;29.77;15.70;;;9.50;99.90;;;;;;5006231;28;20044;-76
2022/04/06 03:17:41;;;;;;;29.70;15.32;;;9.50;99.90;;;;;;4991253;28;20057;-77
2022/04/06 03:20:09;;;;;;;29.95;16.02;;;9.50;99.90;;;;;;5006823;28;20112;-77
2022/04/06 03:22:35;;;;;;;31.35;16.13;;;9.50;99.90;;;;;;4989369;28;20115;-76
2022/04/06 03:25:01;;;;;;;28.70;16.52;;;9.50;99.90;;;;;;5004658;28;20041;-77
2022/04/06 03:27:27;;;;;;;32.88;16.77;;;9.50;99.90;;;;;;4982882;28;20045;-77
2022/04/06 03:29:53;;;;;;;27.95;17.23;;;9.50;99.90;;;;;;4988415;28;20055;-76
2022/04/06 03:32:19;;;;;;;37.35;18.30;;;9.50;99.90;;;;;;4987723;28;20526;-76
2022/04/06 03:34:45;;;;;;;34.95;18.63;;;9.50;99.90;;;;;;5005715;28;20600;-76
2022/04/06 03:37:10;;;;;;;37.00;18.73;;;9.50;99.90;;;;;;4986895;28;20056;-77
2022/04/06 03:39:36;;;;;;;36.35;19.60;;;9.50;99.90;;;;;;5008441;28;20072;-76
2022/04/06 03:42:03;;;;;;;34.22;19.05;;;9.50;99.90;;;;;;5008639;28;20056;-76
2022/04/06 03:44:28;;;;;;;31.90;18.90;;;9.60;99.90;;;;;;5010116;28;20991;-77
2022/04/06 03:46:56;;;;;;;36.38;19.05;;;9.60;99.90;;;;;;5005610;28;20046;-76
2022/04/06 03:49:22;;;;;;;32.75;20.60;;;9.50;99.90;;;;;;5005647;28;20080;-77
2022/04/06 03:51:48;;;;;;;36.97;19.77;;;9.50;99.90;;;;;;5006319;28;20053;-77
2022/04/06 03:54:14;;;;;;;32.72;19.83;;;9.50;99.90;;;;;;4989322;28;20155;-76
2022/04/06 03:56:40;;;;;;;35.97;20.13;;;9.50;99.90;;;;;;5002027;28;20073;-77
2022/04/06 03:59:06;;;;;;;36.65;19.90;;;9.50;99.90;;;;;;4988003;28;20049;-76
2022/04/06 04:01:35;;;;;;;33.05;19.55;;;9.50;99.90;;;;;;5004315;28;20041;-76
2022/04/06 04:04:01;;;;;;;34.15;19.48;;;9.50;99.90;;;;;;5005304;28;20057;-75
2022/04/06 04:06:27;;;;;;;31.73;18.58;;;9.50;99.90;;;;;;4979979;28;20056;-76
2022/04/06 04:08:53;;;;;;;29.52;17.70;;;9.60;99.90;;;;;;5003536;28;20048;-77
2022/04/06 04:11:19;;;;;;;32.97;18.33;;;9.60;99.90;;;;;;5006673;28;20085;-76
2022/04/06 04:13:45;;;;;;;32.70;17.77;;;9.50;99.90;;;;;;5008369;28;20060;-77
2022/04/06 04:16:11;;;;;;;33.20;17.75;;;9.50;99.90;;;;;;4976573;28;20641;-76
2022/04/06 04:18:36;;;;;;;29.15;15.98;;;9.50;99.90;;;;;;4991320;28;20065;-75
2022/04/06 04:23:47;;;;;;;28.33;15.60;;;9.50;99.90;;;;;;5005901;28;20059;-76
2022/04/06 04:26:12;;;;;;;28.55;14.70;;;9.50;99.90;;;;;;5007427;28;20699;-75
2022/04/06 04:28:38;;;;;;;28.27;15.45;;;9.50;99.90;;;;;;5005966;28;20049;-76
2022/04/06 04:31:04;;;;;;;25.63;13.98;;;9.50;99.90;;;;;;5010747;28;20052;-76
2022/04/06 04:33:30;;;;;;;26.35;14.75;;;9.50;99.90;;;;;;4993359;28;20046;-76
2022/04/06 04:35:56;;;;;;;28.55;15.23;;;9.50;99.90;;;;;;5008752;28;20059;-76
2022/04/06 04:38:22;;;;;;;30.95;14.77;;;9.50;99.90;;;;;;5007329;28;20405;-76
2022/04/06 04:40:48;;;;;;;26.52;14.35;;;9.40;99.90;;;;;;5006639;28;20051;-76
2022/04/06 04:43:14;;;;;;;29.73;13.93;;;9.40;99.90;;;;;;4993463;28;20053;-76
2022/04/06 04:45:40;;;;;;;30.05;15.73;;;9.40;99.90;;;;;;4994296;28;20036;-76
2022/04/06 04:48:06;;;;;;;25.30;14.50;;;9.40;99.90;;;;;;4955763;28;20531;-76
2022/04/06 04:50:31;;;;;;;26.40;14.80;;;9.40;99.90;;;;;;4993353;28;20053;-77
2022/04/06 04:52:57;;;;;;;26.83;14.52;;;9.40;99.90;;;;;;4974321;28;20091;-76
2022/04/06 04:55:23;;;;;;;25.70;14.07;;;9.40;99.90;;;;;;4968617;28;21285;-77
2022/04/06 04:57:49;;;;;;;26.90;14.70;;;9.40;99.90;;;;;;4988697;28;20064;-76
2022/04/06 05:00:16;;;;;;;25.50;14.63;;;9.40;99.90;;;;;;4988785;28;20132;-76
2022/04/06 05:02:41;;;;;;;24.20;13.75;;;9.40;99.90;;;;;;4993023;28;20085;-76
2022/04/06 05:05:10;;;;;;;25.40;12.73;;;9.40;99.90;;;;;;4976524;28;20191;-77
2022/04/06 05:07:38;;;;;;;24.25;12.88;;;9.40;99.90;;;;;;4973081;28;20084;-76
2022/04/06 05:10:09;;;;;;;24.60;12.77;;;9.40;99.90;;;;;;4995013;28;20073;-76
2022/04/06 05:12:35;;;;;;;24.92;12.68;;;9.40;99.90;;;;;;4968866;28;20091;-77
2022/04/06 05:15:02;;;;;;;22.40;11.60;;;9.40;99.90;;;;;;5008693;28;20045;-77
2022/04/06 05:17:28;;;;;;;23.60;11.48;;;9.40;99.90;;;;;;5013784;28;20080;-77
2022/04/06 05:19:54;;;;;;;21.65;10.80;;;9.40;99.90;;;;;;5013050;28;20061;-76
2022/04/06 05:22:20;;;;;;;19.42;10.93;;;9.30;99.90;;;;;;5011704;28;20049;-76
2022/04/06 05:24:47;;;;;;;17.73;10.38;;;9.30;99.90;;;;;;4992576;28;20405;-75
2022/04/06 05:27:13;;;;;;;20.52;10.52;;;9.30;99.90;;;;;;5014550;28;20041;-76
2022/04/06 05:29:39;;;;;;;20.08;9.60;;;9.30;99.90;;;;;;4991414;28;20109;-76
2022/04/06 05:32:05;;;;;;;20.98;10.15;;;9.30;99.90;;;;;;5011066;28;20049;-76
2022/04/06 05:34:31;;;;;;;19.83;8.63;;;9.30;99.90;;;;;;5008443;28;20671;-76
2022/04/06 05:36:57;;;;;;;19.38;9.00;;;9.30;99.90;;;;;;5013437;28;20060;-76
2022/04/06 05:39:23;;;;;;;16.58;8.57;;;9.30;99.90;;;;;;5009964;28;20099;-77
2022/04/06 05:41:51;;;;;;;17.25;8.45;;;9.30;99.90;;;;;;5010822;28;20053;-76
2022/04/06 05:44:18;;;;;;;16.45;7.25;;;9.30;99.90;;;;;;5008613;28;20642;-76
2022/04/06 05:46:44;;;;;;;18.15;7.55;;;9.30;99.90;;;;;;4987466;28;20167;-74
2022/04/06 05:49:10;;;;;;;15.10;6.70;;;9.30;99.90;;;;;;4992576;28;20048;-75
2022/04/06 05:51:36;;;;;;;16.02;6.70;;;9.30;99.90;;;;;;5008393;28;20057;-76
2022/04/06 05:54:02;;;;;;;17.65;6.43;;;9.30;99.90;;;;;;5004408;28;20161;-76
2022/04/06 05:56:31;;;;;;;17.17;6.45;;;9.30;99.90;;;;;;5005838;28;20412;-76
2022/04/06 05:58:58;;;;;;;17.52;6.07;;;9.30;99.90;;;;;;4993676;28;20063;-76
2022/04/06 06:01:24;;;;;;;13.98;6.00;;;9.40;99.90;;;;;;4999927;28;20085;-78
2022/04/06 06:03:50;;;;;;;15.10;5.68;;;9.40;99.90;;;;;;4996803;28;20160;-77
2022/04/06 06:06:16;;;;;;;14.30;5.03;;;9.40;99.90;;;;;;4996721;28;20044;-76
2022/04/06 06:08:42;;;;;;;12.57;5.50;;;9.40;99.90;;;;;;5007619;28;20519;-76
2022/04/06 06:11:08;;;;;;;15.60;5.30;;;9.40;99.90;;;;;;5009426;28;20047;-76
2022/04/06 06:13:34;;;;;;;13.13;5.15;;;9.50;99.90;;;;;;5011212;28;20045;-77
2022/04/06 06:16:00;;;;;;;13.07;4.55;;;9.50;99.90;;;;;;5009164;28;20105;-76
2022/04/06 06:18:27;;;;;;;13.07;4.65;;;9.50;99.90;;;;;;5010615;28;20109;-73
2022/04/06 06:20:56;;;;;;;11.70;3.95;;;9.60;99.90;;;;;;5006796;28;20073;-76
2022/04/06 06:23:22;;;;;;;16.92;4.10;;;9.60;99.90;;;;;;4995721;28;20048;-76
2022/04/06 06:25:47;;;;;;;13.48;3.92;;;9.60;99.90;;;;;;5010371;28;20049;-73
2022/04/06 06:28:13;;;;;;;18.20;4.45;;;9.60;99.90;;;;;;4993228;28;20885;-77
2022/04/06 06:30:39;;;;;;;13.02;4.20;;;9.60;99.90;;;;;;5009000;28;20045;-74
2022/04/06 06:33:05;;;;;;;12.48;3.83;;;9.60;99.90;;;;;;5009743;28;20892;-76
2022/04/06 06:35:31;;;;;;;13.68;3.70;;;9.60;99.90;;;;;;4993039;28;20050;-76
2022/04/06 06:37:57;;;;;;;19.27;3.97;;;9.60;99.90;;;;;;5007234;28;20056;-76
2022/04/06 06:40:25;;;;;;;14.30;3.75;;;9.60;99.90;;;;;;5010161;28;20049;-76
2022/04/06 06:42:51;;;;;;;10.77;3.58;;;9.60;99.90;;;;;;5009757;28;20052;-76
2022/04/06 06:45:17;;;;;;;14.13;3.45;;;9.60;99.90;;;;;;5005908;28;20044;-74
2022/04/06 06:47:43;;;;;;;12.75;3.78;;;9.60;99.90;;;;;;4965688;28;20041;-76
2022/04/06 06:50:14;;;;;;;13.55;3.45;;;9.60;99.90;;;;;;5005724;28;20412;-77
2022/04/06 06:52:40;;;;;;;11.75;3.78;;;9.60;99.90;;;;;;5003162;28;20389;-77
2022/04/06 06:55:10;;;;;;;9.50;3.55;;;9.60;99.90;;;;;;4987962;28;20122;-76
2022/04/06 06:57:36;;;;;;;11.13;4.20;;;9.60;99.90;;;;;;4986025;28;20108;-76
2022/04/06 07:00:03;;;;;;;11.13;3.40;;;9.60;99.90;;;;;;5004193;28;20049;-76
2022/04/06 07:02:29;;;;;;;13.15;4.30;;;9.60;99.90;;;;;;5003766;28;20052;-75
2022/04/06 07:04:55;;;;;;;15.48;4.20;;;9.60;99.90;;;;;;5004953;28;20041;-76
2022/04/06 07:07:21;;;;;;;15.90;4.47;;;9.50;99.90;;;;;;4988777;28;20049;-76
2022/04/06 07:09:47;;;;;;;13.75;4.10;;;9.50;99.90;;;;;;5006791;28;20091;-75
2022/04/06 07:12:12;;;;;;;16.88;5.10;;;9.50;99.90;;;;;;4995495;28;20135;-76
2022/04/06 07:14:38;;;;;;;16.10;5.32;;;9.50;99.90;;;;;;4989884;28;20072;-76
2022/04/06 07:17:04;;;;;;;11.75;4.13;;;9.50;99.90;;;;;;5011950;28;20080;-76
2022/04/06 07:19:30;;;;;;;12.32;4.88;;;9.50;99.90;;;;;;4986858;28;20144;-75
2022/04/06 07:21:56;;;;;;;13.90;4.75;;;9.50;99.90;;;;;;4994754;28;20480;-76
2022/04/06 07:24:22;;;;;;;15.07;4.57;;;9.40;99.90;;;;;;5003672;28;20081;-75
2022/04/06 07:26:48;;;;;;;14.25;4.63;;;9.40;99.90;;;;;;5011582;28;20053;-75
2022/04/06 07:29:15;;;;;;;11.98;4.90;;;9.50;99.90;;;;;;5009989;28;20412;-76
2022/04/06 07:31:44;;;;;;;15.48;5.72;;;9.50;99.90;;;;;;4987938;28;20084;-75
2022/04/06 07:34:10;;;;;;;13.55;5.65;;;9.50;99.90;;;;;;5007809;28;20056;-76
2022/04/06 07:36:37;;;;;;;14.82;5.50;;;9.50;99.90;;;;;;5002486;28;20194;-75
2022/04/06 07:39:04;;;;;;;16.05;6.25;;;9.60;99.90;;;;;;5010451;28;20057;-76
2022/04/06 07:41:31;;;;;;;14.35;6.10;;;9.60;99.90;;;;;;5010712;28;20045;-75
2022/04/06 07:43:57;;;;;;;14.73;6.88;;;9.60;99.90;;;;;;4987301;28;20056;-73
2022/04/06 07:46:23;;;;;;;13.15;6.60;;;9.60;99.90;;;;;;5012542;28;21864;-76
2022/04/06 07:48:50;;;;;;;16.92;7.43;;;9.70;99.90;;;;;;4989289;28;20119;-75
2022/04/06 07:51:16;;;;;;;18.13;7.63;;;9.70;99.90;;;;;;5006779;28;20041;-76
2022/04/06 07:53:42;;;;;;;17.77;7.18;;;9.70;99.90;;;;;;5006567;28;20900;-76
2022/04/06 07:56:08;;;;;;;16.00;7.88;;;9.70;99.90;;;;;;5008547;28;20049;-76
2022/04/06 07:58:34;;;;;;;18.02;8.23;;;9.70;99.90;;;;;;4989399;28;20048;-74
2022/04/06 08:01:02;;;;;;;16.90;8.43;;;9.70;99.90;;;;;;5008366;28;20045;-75
2022/04/06 08:03:29;;;;;;;16.13;7.80;;;9.70;99.90;;;;;;5005732;28;21091;-76
2022/04/06 08:05:56;;;;;;;17.02;8.55;;;9.80;99.90;;;;;;4999581;28;20049;-75
2022/04/06 08:08:22;;;;;;;17.17;8.73;;;9.80;99.90;;;;;;5003125;28;20123;-78
2022/04/06 08:10:48;;;;;;;19.48;9.15;;;9.80;99.90;;;;;;4997568;28;20046;-77
2022/04/06 08:13:14;;;;;;;20.98;9.77;;;9.90;99.90;;;;;;5009574;28;20040;-75
2022/04/06 08:15:40;;;;;;;19.25;9.45;;;9.90;99.90;;;;;;4998891;28;20084;-76
2022/04/06 08:18:06;;;;;;;18.98;8.85;;;9.90;99.90;;;;;;5006286;28;20223;-75
2022/04/06 08:20:33;;;;;;;19.90;9.02;;;9.90;99.90;;;;;;4999590;28;20894;-76
2022/04/06 08:22:59;;;;;;;17.35;9.70;;;9.90;99.90;;;;;;5002219;28;20057;-76
2022/04/06 08:25:26;;;;;;;18.65;9.07;;;10.00;99.90;;;;;;5001820;28;20041;-76
2022/04/06 08:27:53;;;;;;;14.88;8.48;;;10.10;99.90;;;;;;5005037;28;20056;-75
2022/04/06 08:30:22;;;;;;;16.30;8.88;;;10.10;99.90;;;;;;5007742;28;20138;-74
2022/04/06 08:32:48;;;;;;;17.73;9.18;;;10.10;99.90;;;;;;5000829;28;20118;-76
2022/04/06 08:35:14;;;;;;;21.10;9.00;;;10.10;99.90;;;;;;4988444;28;20136;-76
2022/04/06 08:37:40;;;;;;;16.92;8.32;;;10.10;99.90;;;;;;4979123;28;20760;-77
2022/04/06 08:40:10;;;;;;;20.90;8.80;;;10.10;99.90;;;;;;5009526;28;20052;-76
2022/04/06 08:42:36;;;;;;;15.02;8.18;;;10.10;99.90;;;;;;5007526;28;20077;-76
2022/04/06 08:45:06;;;;;;;18.35;8.35;;;10.10;99.90;;;;;;5007792;28;20041;-76
2022/04/06 08:47:33;;;;;;;25.92;7.80;;;10.20;99.90;;;;;;4991390;28;20048;-76
2022/04/06 08:50:03;;;;;;;14.85;7.35;;;10.20;99.90;;;;;;4991085;28;20057;-76
2022/04/06 08:52:32;;;;;;;16.38;7.53;;;10.30;99.90;;;;;;5008014;28;20582;-76
2022/04/06 08:54:58;;;;;;;11.80;5.82;;;10.40;99.90;;;;;;5007131;28;20084;-75
2022/04/06 08:57:25;;;;;;;15.55;6.10;;;10.60;99.90;;;;;;4990534;28;20052;-77
2022/04/06 08:59:51;;;;;;;14.73;6.20;;;10.90;99.90;;;;;;5008435;28;20064;-76
2022/04/06 09:02:18;;;;;;;13.75;5.18;;;11.00;99.90;;;;;;4992193;28;20041;-76
2022/04/06 09:04:49;;;;;;;15.43;5.35;;;10.90;99.90;;;;;;5011176;28;20081;-73
2022/04/06 09:07:15;;;;;;;13.23;4.88;;;11.00;99.90;;;;;;4990042;28;20048;-77
2022/04/06 09:09:41;;;;;;;19.38;5.13;;;10.90;99.90;;;;;;5009018;28;20053;-76
2022/04/06 09:12:15;;;;;;;21.52;4.93;;;10.90;99.90;;;;;;4993282;28;20099;-77
2022/04/06 09:14:41;;;;;;;16.75;4.07;;;10.80;99.90;;;;;;5006495;28;20151;-76
2022/04/06 09:17:07;;;;;;;18.80;4.93;;;10.80;99.90;;;;;;5012000;28;20050;-76
2022/04/06 09:19:37;;;;;;;34.20;4.78;;;10.80;99.90;;;;;;5009638;28;20346;-78
2022/04/06 09:22:07;;;;;;;10.73;3.20;;;10.80;99.90;;;;;;5010242;28;20076;-76
2022/04/06 09:24:33;;;;;;;16.95;3.92;;;10.80;99.90;;;;;;5008027;28;20064;-76
2022/04/06 09:27:02;;;;;;;10.80;3.60;;;10.80;99.90;;;;;;5010801;28;20511;-76
2022/04/06 09:29:28;;;;;;;16.17;4.15;;;10.80;99.90;;;;;;5001675;28;20906;-76
2022/04/06 09:31:54;;;;;;;18.42;4.05;;;11.00;99.90;;;;;;4993137;28;20045;-76
2022/04/06 09:34:47;;;;;;;17.50;4.10;;;11.10;99.90;;;;;;5011383;28;20049;-77
2022/04/06 09:37:28;;;;;;;10.27;3.30;;;11.10;99.90;;;;;;5014933;28;20041;-77
2022/04/06 09:39:58;;;;;;;9.98;3.88;;;11.00;99.90;;;;;;4972679;28;20053;-77
2022/04/06 09:42:26;;;;;;;12.18;3.40;;;10.60;99.90;;;;;;5013734;28;20123;-77
2022/04/06 09:47:39;;;;;;;12.63;4.28;;;10.60;99.90;;;;;;5011885;28;20060;-77
2022/04/06 09:50:09;;;;;;;11.05;3.80;;;10.50;99.90;;;;;;5013666;28;20041;-76
2022/04/06 09:52:36;;;;;;;11.25;4.18;;;10.60;99.90;;;;;;5011233;28;20053;-76
2022/04/06 09:55:06;;;;;;;13.43;4.28;;;10.60;99.90;;;;;;5014707;28;20041;-78
2022/04/06 09:57:42;;;;;;;21.67;5.20;;;10.70;99.90;;;;;;5013279;28;20059;-76
2022/04/06 10:00:11;;;;;;;15.25;4.22;;;10.80;99.90;;;;;;5011766;28;20526;-78
2022/04/06 10:02:37;;;;;;;15.27;4.90;;;10.80;99.90;;;;;;5010946;28;20146;-79
2022/04/06 10:05:04;;;;;;;15.02;3.90;;;10.90;99.90;;;;;;4996080;28;20102;-78
2022/04/06 10:07:31;;;;;;;8.88;3.60;;;10.80;99.90;;;;;;5013442;28;20049;-77
2022/04/06 10:09:58;;;;;;;11.50;4.00;;;10.60;99.90;;;;;;5014625;28;20044;-75
2022/04/06 10:12:26;;;;;;;11.90;4.35;;;10.60;99.90;;;;;;5011997;28;20048;-76
2022/04/06 10:14:53;;;;;;;11.38;4.45;;;10.60;99.90;;;;;;4975997;28;20084;-76
2022/04/06 10:17:19;;;;;;;10.30;3.88;;;10.60;99.90;;;;;;4994341;28;20131;-75
2022/04/06 10:19:51;;;;;;;9.13;4.10;;;10.70;99.90;;;;;;5011368;28;20067;-75
2022/04/06 10:22:25;;;;;;;11.00;4.47;;;10.70;99.90;;;;;;4991443;28;20050;-76
2022/04/06 10:24:59;;;;;;;;;;;10.70;99.90;;;;;;5006915;28;20947;-76
2022/04/06 10:27:32;;;;;;;13.30;5.17;;;10.70;99.90;;;;;;5008342;28;20573;-75
2022/04/06 10:30:20;;;;;;;11.65;4.97;;;10.70;99.90;;;;;;4992944;28;21804;-76
2022/04/06 10:32:48;;;;;;;12.35;5.15;;;10.60;99.90;;;;;;5010694;28;20052;-75
2022/04/06 10:35:36;;;;;;;11.60;4.93;;;10.60;99.90;;;;;;4994659;28;20259;-76
2022/04/06 10:38:05;;;;;;;13.10;5.05;;;10.60;99.90;;;;;;4995587;28;20049;-75
2022/04/06 10:40:46;;;;;;;12.70;5.30;;;10.60;99.90;;;;;;4992722;28;20444;-77
2022/04/06 10:43:34;;;;;;;11.63;5.63;;;10.60;99.90;;;;;;5005707;28;20041;-76
2022/04/06 10:46:00;;;;;;;12.07;5.50;;;10.60;99.90;;;;;;5008408;28;20698;-76
2022/04/06 10:48:26;;;;;;;14.80;5.50;;;10.80;99.90;;;;;;5007987;28;20053;-77
2022/04/06 10:51:33;;;;;;;15.00;5.80;;;10.70;99.90;;;;;;5007419;28;20053;-77
2022/04/06 10:54:19;;;;;;;12.90;6.15;;;10.60;99.90;;;;;;4992907;28;20045;-75
2022/04/06 10:56:52;;;;;;;13.55;6.68;;;10.60;99.90;;;;;;5004854;28;20728;-76
2022/04/06 10:59:19;;;;;;;12.60;6.43;;;10.50;99.90;;;;;;5008680;28;20131;-75
2022/04/06 11:01:48;;;;;;;12.43;6.70;;;10.40;99.90;;;;;;5009193;28;20061;-76
2022/04/06 11:04:22;;;;;;;13.75;7.13;;;10.40;99.90;;;;;;4995659;28;20085;-76
2022/04/06 11:06:53;;;;;;;18.10;7.15;;;10.40;99.90;;;;;;5006828;28;20084;-75
2022/04/06 11:12:26;;;;;;;14.77;8.27;;;10.40;99.90;;;;;;5011927;28;20053;-76
2022/04/06 11:14:52;;;;;;;17.25;9.40;;;10.30;99.90;;;;;;4996982;28;20045;-76
2022/04/06 11:17:32;;;;;;;22.20;12.20;;;10.30;99.90;;;;;;5012685;28;20751;-75
2022/04/06 11:19:59;;;;;;;24.15;14.13;;;10.20;99.90;;;;;;5011524;28;20871;-75
2022/04/06 11:22:25;;;;;;;29.25;16.85;;;10.10;99.90;;;;;;5006648;28;20049;-76
2022/04/06 11:24:54;;;;;;;25.17;17.17;;;10.00;99.90;;;;;;5006384;28;20049;-77
2022/04/06 11:27:34;;;;;;;33.38;17.40;;;10.00;99.90;;;;;;5005430;28;20041;-77
2022/04/06 11:30:03;;;;;;;28.90;19.65;;;10.00;99.90;;;;;;4996497;28;20048;-76
2022/04/06 11:32:29;;;;;;;30.08;21.08;;;9.90;99.90;;;;;;5010742;28;20045;-76
2022/04/06 11:35:03;;;;;;;23.88;18.60;;;10.00;99.90;;;;;;5007392;28;20129;-75
2022/04/06 11:37:30;;;;;;;25.00;17.48;;;9.90;99.90;;;;;;4994379;28;20053;-75
2022/04/06 11:40:00;;;;;;;25.42;18.92;;;9.90;99.90;;;;;;5007858;28;20862;-75
2022/04/06 11:42:27;;;;;;;27.92;19.08;;;10.00;99.90;;;;;;4988959;28;20076;-76
2022/04/06 11:44:54;;;;;;;30.17;21.52;;;10.10;99.90;;;;;;4988404;28;20543;-76
2022/04/06 11:47:37;;;;;;;29.42;22.00;;;10.10;99.90;;;;;;5011976;28;20045;-77
2022/04/06 11:50:06;;;;;;;32.33;22.80;;;10.20;99.90;;;;;;5012405;28;20045;-78
2022/04/06 11:52:34;;;;;;;24.70;18.75;;;10.20;99.90;;;;;;5011189;28;20052;-77
2022/04/06 11:55:00;;;;;;;23.40;17.65;;;10.20;99.90;;;;;;5011111;28;20507;-77
2022/04/06 11:57:34;;;;;;;22.40;16.65;;;10.20;99.90;;;;;;5008610;28;20041;-77
2022/04/06 12:00:00;;;;;;;22.77;16.48;;;10.30;99.90;;;;;;5009724;28;20045;-78
2022/04/06 12:02:26;;;;;;;18.60;15.30;;;10.30;99.90;;;;;;4992435;28;20045;-76
2022/04/06 12:05:03;;;;;;;21.70;14.80;;;10.30;99.90;;;;;;5009686;28;20049;-76
2022/04/06 12:07:29;;;;;;;18.15;15.20;;;10.20;99.90;;;;;;4992662;28;20125;-78
2022/04/06 12:09:56;;;;;;;19.00;15.65;;;10.20;99.90;;;;;;4999282;28;20077;-77
2022/04/06 12:12:23;;;;;;;20.35;16.27;;;10.30;99.90;;;;;;4989642;28;20053;-76
2022/04/06 12:14:51;;;;;;;19.83;15.25;;;10.40;99.90;;;;;;4986904;28;20062;-78
2022/04/06 12:17:18;;;;;;;19.83;14.85;;;10.60;99.90;;;;;;5008624;28;20059;-77
2022/04/06 12:19:44;;;;;;;18.42;15.73;;;10.80;99.90;;;;;;4991603;28;20052;-77
2022/04/06 12:22:11;;;;;;;18.85;15.15;;;10.90;99.90;;;;;;4987999;28;20174;-77
2022/04/06 12:24:43;;;;;;;18.58;14.77;;;11.00;99.90;;;;;;5009425;28;20114;-76
2022/04/06 12:27:09;;;;;;;14.50;12.35;;;11.10;99.90;;;;;;4988421;28;20686;-77
2022/04/06 12:29:36;;;;;;;18.02;14.32;;;11.00;99.90;;;;;;5004417;28;20163;-77
2022/04/06 12:32:05;;;;;;;18.17;16.00;;;11.20;99.90;;;;;;4987538;28;20125;-76
2022/04/06 12:34:40;;;;;;;18.33;15.45;;;11.30;99.90;;;;;;5010777;28;20143;-76
2022/04/06 12:39:54;;;;;;;16.70;14.38;;;11.50;99.90;;;;;;5009177;28;20056;-77
2022/04/06 12:42:22;;;;;;;16.23;12.48;;;11.60;99.90;;;;;;5008724;28;20500;-77
2022/04/06 12:44:58;;;;;;;17.17;13.00;;;11.50;99.90;;;;;;5005869;28;20085;-77
2022/04/06 12:47:25;;;;;;;14.23;11.10;;;11.50;99.90;;;;;;5012347;28;20052;-77
2022/04/06 12:49:58;;;;;;;13.93;10.43;;;11.40;99.90;;;;;;5004166;28;20037;-77
2022/04/06 12:52:25;;;;;;;13.65;9.93;;;11.20;99.90;;;;;;5011361;28;20048;-76
2022/04/06 12:55:06;;;;;;;14.02;10.43;;;11.30;99.90;;;;;;4994845;28;20119;-77
2022/04/06 12:57:37;;;;;;;15.68;10.68;;;11.60;99.90;;;;;;5006057;28;20080;-77